sensor_id;sensor_type;location;lat;lon;timestamp;temperature;humidity
39219;DHT22;24934;52.752;6.964;2022-11-24T00:00:25;6.60;99.90
39219;DHT22;24934;52.752;6.964;2022-11-24T00:02:51;6.60;99.90
39219;DHT22;24934;52.752;6.964;2022-11-24T00:05:16;6.60;99.90
39219;DHT22;24934;52.752;6.964;2022-11-24T00:07:42;6.60;99.90
39219;DHT22;24934;52.752;6.964;2022-11-24T00:10:08;6.50;99.90
39219;DHT22;24934;52.752;6.964;2022-11-24T00:12:34;6.50;99.90
39219;DHT22;24934;52.752;6.964;2022-11-24T00:14:59;6.50;99.90
39219;DHT22;24934;52.752;6.964;2022-11-24T00:17:25;6.50;99.90
39219;DHT22;24934;52.752;6.964;2022-11-24T00:19:50;6.40;99.90
39219;DHT22;24934;52.752;6.964;2022-11-24T00:22:25;6.40;99.90
39219;DHT22;24934;52.752;6.964;2022-11-24T00:24:51;6.40;99.90
39219;DHT22;24934;52.752;6.964;2022-11-24T00:27:16;6.40;99.90
39219;DHT22;24934;52.752;6.964;2022-11-24T00:29:42;6.40;99.90
39219;DHT22;24934;52.752;6.964;2022-11-24T00:32:07;6.40;99.90
39219;DHT22;24934;52.752;6.964;2022-11-24T00:34:33;6.40;99.90
39219;DHT22;24934;52.752;6.964;2022-11-24T00:36:59;6.40;99.90
39219;DHT22;24934;52.752;6.964;2022-11-24T00:39:25;6.30;99.90
39219;DHT22;24934;52.752;6.964;2022-11-24T00:41:50;6.30;99.90
39219;DHT22;24934;52.752;6.964;2022-11-24T00:44:16;6.30;99.90
39219;DHT22;24934;52.752;6.964;2022-11-24T00:46:44;6.30;99.90
39219;DHT22;24934;52.752;6.964;2022-11-24T00:49:13;6.30;99.90
39219;DHT22;24934;52.752;6.964;2022-11-24T00:51:38;6.20;99.90
39219;DHT22;24934;52.752;6.964;2022-11-24T00:54:04;6.20;99.90
39219;DHT22;24934;52.752;6.964;2022-11-24T00:56:31;6.10;99.90
39219;DHT22;24934;52.752;6.964;2022-11-24T00:58:57;6.20;99.90
39219;DHT22;24934;52.752;6.964;2022-11-24T01:01:27;6.10;99.90
39219;DHT22;24934;52.752;6.964;2022-11-24T01:03:53;6.10;99.90
39219;DHT22;24934;52.752;6.964;2022-11-24T01:06:22;6.10;99.90
39219;DHT22;24934;52.752;6.964;2022-11-24T01:08:51;6.10;99.90
39219;DHT22;24934;52.752;6.964;2022-11-24T01:13:47;6.10;99.90
39219;DHT22;24934;52.752;6.964;2022-11-24T01:18:44;6.10;99.90
39219;DHT22;24934;52.752;6.964;2022-11-24T01:21:10;6.10;99.90
39219;DHT22;24934;52.752;6.964;2022-11-24T01:23:36;6.20;99.90
39219;DHT22;24934;52.752;6.964;2022-11-24T01:26:10;6.10;99.90
39219;DHT22;24934;52.752;6.964;2022-11-24T01:28:36;6.10;99.90
39219;DHT22;24934;52.752;6.964;2022-11-24T01:31:04;6.10;99.90
39219;DHT22;24934;52.752;6.964;2022-11-24T01:33:30;6.10;99.90
39219;DHT22;24934;52.752;6.964;2022-11-24T01:35:57;6.10;99.90
39219;DHT22;24934;52.752;6.964;2022-11-24T01:38:25;6.10;99.90
39219;DHT22;24934;52.752;6.964;2022-11-24T01:41:12;6.10;99.90
39219;DHT22;24934;52.752;6.964;2022-11-24T01:43:38;6.10;99.90
39219;DHT22;24934;52.752;6.964;2022-11-24T01:46:42;6.20;99.90
39219;DHT22;24934;52.752;6.964;2022-11-24T01:49:12;6.20;99.90
39219;DHT22;24934;52.752;6.964;2022-11-24T01:51:42;6.20;99.90
39219;DHT22;24934;52.752;6.964;2022-11-24T01:54:13;6.20;99.90
39219;DHT22;24934;52.752;6.964;2022-11-24T01:56:42;6.30;99.90
39219;DHT22;24934;52.752;6.964;2022-11-24T01:59:13;6.30;99.90
39219;DHT22;24934;52.752;6.964;2022-11-24T02:01:39;6.30;99.90
39219;DHT22;24934;52.752;6.964;2022-11-24T02:04:08;6.30;99.90
39219;DHT22;24934;52.752;6.964;2022-11-24T02:06:36;6.30;99.90
39219;DHT22;24934;52.752;6.964;2022-11-24T02:09:20;6.30;99.90
39219;DHT22;24934;52.752;6.964;2022-11-24T02:11:47;6.30;99.90
39219;DHT22;24934;52.752;6.964;2022-11-24T02:14:15;6.30;99.90
39219;DHT22;24934;52.752;6.964;2022-11-24T02:16:48;6.30;99.90
39219;DHT22;24934;52.752;6.964;2022-11-24T02:21:47;6.30;99.90
39219;DHT22;24934;52.752;6.964;2022-11-24T02:26:48;6.40;99.90
39219;DHT22;24934;52.752;6.964;2022-11-24T02:29:16;6.40;99.90
39219;DHT22;24934;52.752;6.964;2022-11-24T02:32:03;6.40;99.90
39219;DHT22;24934;52.752;6.964;2022-11-24T02:34:30;6.40;99.90
39219;DHT22;24934;52.752;6.964;2022-11-24T02:36:56;6.40;99.90
39219;DHT22;24934;52.752;6.964;2022-11-24T02:39:22;6.40;99.90
39219;DHT22;24934;52.752;6.964;2022-11-24T02:41:57;6.40;99.90
39219;DHT22;24934;52.752;6.964;2022-11-24T02:44:28;6.40;99.90
39219;DHT22;24934;52.752;6.964;2022-11-24T02:47:06;6.40;99.90
39219;DHT22;24934;52.752;6.964;2022-11-24T02:49:33;6.30;99.90
39219;DHT22;24934;52.752;6.964;2022-11-24T02:51:59;6.40;99.90
39219;DHT22;24934;52.752;6.964;2022-11-24T02:54:24;6.30;99.90
39219;DHT22;24934;52.752;6.964;2022-11-24T02:56:50;6.30;99.90
39219;DHT22;24934;52.752;6.964;2022-11-24T02:59:22;6.40;99.90
39219;DHT22;24934;52.752;6.964;2022-11-24T03:01:48;6.40;99.90
39219;DHT22;24934;52.752;6.964;2022-11-24T03:04:14;6.30;99.90
39219;DHT22;24934;52.752;6.964;2022-11-24T03:06:39;6.30;99.90
39219;DHT22;24934;52.752;6.964;2022-11-24T03:09:06;6.30;99.90
39219;DHT22;24934;52.752;6.964;2022-11-24T03:11:31;6.30;99.90
39219;DHT22;24934;52.752;6.964;2022-11-24T03:13:57;6.30;99.90
39219;DHT22;24934;52.752;6.964;2022-11-24T03:16:23;6.30;99.90
39219;DHT22;24934;52.752;6.964;2022-11-24T03:18:54;6.30;99.90
39219;DHT22;24934;52.752;6.964;2022-11-24T03:21:22;6.30;99.90
39219;DHT22;24934;52.752;6.964;2022-11-24T03:23:48;6.40;99.90
39219;DHT22;24934;52.752;6.964;2022-11-24T03:26:17;6.50;99.90
39219;DHT22;24934;52.752;6.964;2022-11-24T03:28:43;6.50;99.90
39219;DHT22;24934;52.752;6.964;2022-11-24T03:31:09;6.50;99.90
39219;DHT22;24934;52.752;6.964;2022-11-24T03:33:35;6.50;99.90
39219;DHT22;24934;52.752;6.964;2022-11-24T03:36:02;6.60;99.90
39219;DHT22;24934;52.752;6.964;2022-11-24T03:38:28;6.60;99.90
39219;DHT22;24934;52.752;6.964;2022-11-24T03:40:57;6.60;99.90
39219;DHT22;24934;52.752;6.964;2022-11-24T03:43:22;6.70;99.90
39219;DHT22;24934;52.752;6.964;2022-11-24T03:45:49;6.70;99.90
39219;DHT22;24934;52.752;6.964;2022-11-24T03:48:15;6.70;99.90
39219;DHT22;24934;52.752;6.964;2022-11-24T03:50:52;6.70;99.90
39219;DHT22;24934;52.752;6.964;2022-11-24T03:53:18;6.80;99.90
39219;DHT22;24934;52.752;6.964;2022-11-24T03:55:44;6.80;99.90
39219;DHT22;24934;52.752;6.964;2022-11-24T03:58:09;6.80;99.90
39219;DHT22;24934;52.752;6.964;2022-11-24T04:00:35;6.80;99.90
39219;DHT22;24934;52.752;6.964;2022-11-24T04:03:00;6.80;99.90
39219;DHT22;24934;52.752;6.964;2022-11-24T04:05:26;6.80;99.90
39219;DHT22;24934;52.752;6.964;2022-11-24T04:07:58;6.80;99.90
39219;DHT22;24934;52.752;6.964;2022-11-24T04:10:27;6.70;99.90
39219;DHT22;24934;52.752;6.964;2022-11-24T04:12:53;6.70;99.90
39219;DHT22;24934;52.752;6.964;2022-11-24T04:15:19;6.70;99.90
39219;DHT22;24934;52.752;6.964;2022-11-24T04:17:47;6.60;99.90
39219;DHT22;24934;52.752;6.964;2022-11-24T04:20:13;6.60;99.90
39219;DHT22;24934;52.752;6.964;2022-11-24T04:22:42;6.50;99.90
39219;DHT22;24934;52.752;6.964;2022-11-24T04:25:09;6.50;99.90
39219;DHT22;24934;52.752;6.964;2022-11-24T04:27:36;6.40;99.90
39219;DHT22;24934;52.752;6.964;2022-11-24T04:30:04;6.40;99.90
39219;DHT22;24934;52.752;6.964;2022-11-24T04:32:30;6.40;99.90
39219;DHT22;24934;52.752;6.964;2022-11-24T04:34:55;6.40;99.90
39219;DHT22;24934;52.752;6.964;2022-11-24T04:37:24;6.50;99.90
39219;DHT22;24934;52.752;6.964;2022-11-24T04:39:50;6.50;99.90
39219;DHT22;24934;52.752;6.964;2022-11-24T04:42:15;6.50;99.90
39219;DHT22;24934;52.752;6.964;2022-11-24T04:44:41;6.50;99.90
39219;DHT22;24934;52.752;6.964;2022-11-24T04:47:09;6.50;99.90
39219;DHT22;24934;52.752;6.964;2022-11-24T04:49:36;6.50;99.90
39219;DHT22;24934;52.752;6.964;2022-11-24T04:52:02;6.50;99.90
39219;DHT22;24934;52.752;6.964;2022-11-24T04:54:27;6.50;99.90
39219;DHT22;24934;52.752;6.964;2022-11-24T04:56:55;6.50;99.90
39219;DHT22;24934;52.752;6.964;2022-11-24T04:59:21;6.50;99.90
39219;DHT22;24934;52.752;6.964;2022-11-24T05:01:49;6.50;99.90
39219;DHT22;24934;52.752;6.964;2022-11-24T05:04:15;6.60;99.90
39219;DHT22;24934;52.752;6.964;2022-11-24T05:06:41;6.60;99.90
39219;DHT22;24934;52.752;6.964;2022-11-24T05:09:07;6.60;99.90
39219;DHT22;24934;52.752;6.964;2022-11-24T05:11:33;6.60;99.90
39219;DHT22;24934;52.752;6.964;2022-11-24T05:13:59;6.60;99.90
39219;DHT22;24934;52.752;6.964;2022-11-24T05:16:26;6.50;99.90
39219;DHT22;24934;52.752;6.964;2022-11-24T05:18:52;6.50;99.90
39219;DHT22;24934;52.752;6.964;2022-11-24T05:21:18;6.50;99.90
39219;DHT22;24934;52.752;6.964;2022-11-24T05:23:48;6.50;99.90
39219;DHT22;24934;52.752;6.964;2022-11-24T05:26:17;6.40;99.90
39219;DHT22;24934;52.752;6.964;2022-11-24T05:28:45;6.40;99.90
39219;DHT22;24934;52.752;6.964;2022-11-24T05:31:11;6.30;99.90
39219;DHT22;24934;52.752;6.964;2022-11-24T05:33:36;6.30;99.90
39219;DHT22;24934;52.752;6.964;2022-11-24T05:36:04;6.30;99.90
39219;DHT22;24934;52.752;6.964;2022-11-24T05:38:30;6.30;99.90
39219;DHT22;24934;52.752;6.964;2022-11-24T05:41:04;6.30;99.90
39219;DHT22;24934;52.752;6.964;2022-11-24T05:43:32;6.20;99.90
39219;DHT22;24934;52.752;6.964;2022-11-24T05:46:00;6.20;99.90
39219;DHT22;24934;52.752;6.964;2022-11-24T05:48:25;6.20;99.90
39219;DHT22;24934;52.752;6.964;2022-11-24T05:50:58;6.20;99.90
39219;DHT22;24934;52.752;6.964;2022-11-24T05:53:23;6.10;99.90
39219;DHT22;24934;52.752;6.964;2022-11-24T05:55:50;6.10;99.90
39219;DHT22;24934;52.752;6.964;2022-11-24T05:58:16;6.10;99.90
39219;DHT22;24934;52.752;6.964;2022-11-24T06:00:41;6.10;99.90
39219;DHT22;24934;52.752;6.964;2022-11-24T06:03:10;6.10;99.90
39219;DHT22;24934;52.752;6.964;2022-11-24T06:05:39;6.20;99.90
39219;DHT22;24934;52.752;6.964;2022-11-24T06:08:05;6.20;99.90
39219;DHT22;24934;52.752;6.964;2022-11-24T06:10:30;6.20;99.90
39219;DHT22;24934;52.752;6.964;2022-11-24T06:12:56;6.20;99.90
39219;DHT22;24934;52.752;6.964;2022-11-24T06:15:22;6.20;99.90
39219;DHT22;24934;52.752;6.964;2022-11-24T06:17:55;6.20;99.90
39219;DHT22;24934;52.752;6.964;2022-11-24T06:20:22;6.20;99.90
39219;DHT22;24934;52.752;6.964;2022-11-24T06:22:48;6.20;99.90
39219;DHT22;24934;52.752;6.964;2022-11-24T06:25:14;6.20;99.90
39219;DHT22;24934;52.752;6.964;2022-11-24T06:27:40;6.20;99.90
39219;DHT22;24934;52.752;6.964;2022-11-24T06:30:06;6.20;99.90
39219;DHT22;24934;52.752;6.964;2022-11-24T06:32:35;6.20;99.90
39219;DHT22;24934;52.752;6.964;2022-11-24T06:35:03;6.20;99.90
39219;DHT22;24934;52.752;6.964;2022-11-24T06:37:29;6.20;99.90
39219;DHT22;24934;52.752;6.964;2022-11-24T06:39:54;6.20;99.90
39219;DHT22;24934;52.752;6.964;2022-11-24T06:42:20;6.30;99.90
39219;DHT22;24934;52.752;6.964;2022-11-24T06:44:46;6.30;99.90
39219;DHT22;24934;52.752;6.964;2022-11-24T06:47:13;6.30;99.90
39219;DHT22;24934;52.752;6.964;2022-11-24T06:49:42;6.30;99.90
39219;DHT22;24934;52.752;6.964;2022-11-24T06:52:07;6.40;99.90
39219;DHT22;24934;52.752;6.964;2022-11-24T06:54:33;6.40;99.90
39219;DHT22;24934;52.752;6.964;2022-11-24T06:57:01;6.40;99.90
39219;DHT22;24934;52.752;6.964;2022-11-24T06:59:30;6.40;99.90
39219;DHT22;24934;52.752;6.964;2022-11-24T07:01:56;6.50;99.90
39219;DHT22;24934;52.752;6.964;2022-11-24T07:04:22;6.50;99.90
39219;DHT22;24934;52.752;6.964;2022-11-24T07:06:48;6.50;99.90
39219;DHT22;24934;52.752;6.964;2022-11-24T07:09:13;6.60;99.90
39219;DHT22;24934;52.752;6.964;2022-11-24T07:11:40;6.60;99.90
39219;DHT22;24934;52.752;6.964;2022-11-24T07:14:06;6.60;99.90
39219;DHT22;24934;52.752;6.964;2022-11-24T07:16:32;6.60;99.90
39219;DHT22;24934;52.752;6.964;2022-11-24T07:18:58;6.70;99.90
39219;DHT22;24934;52.752;6.964;2022-11-24T07:21:31;6.70;99.90
39219;DHT22;24934;52.752;6.964;2022-11-24T07:23:59;6.70;99.90
39219;DHT22;24934;52.752;6.964;2022-11-24T07:26:25;6.80;99.90
39219;DHT22;24934;52.752;6.964;2022-11-24T07:28:51;6.80;99.90
39219;DHT22;24934;52.752;6.964;2022-11-24T07:31:19;6.80;99.90
39219;DHT22;24934;52.752;6.964;2022-11-24T07:33:51;6.90;99.90
39219;DHT22;24934;52.752;6.964;2022-11-24T07:36:17;6.90;99.90
39219;DHT22;24934;52.752;6.964;2022-11-24T07:38:43;6.90;99.90
39219;DHT22;24934;52.752;6.964;2022-11-24T07:41:10;6.90;99.90
39219;DHT22;24934;52.752;6.964;2022-11-24T07:43:37;6.90;99.90
39219;DHT22;24934;52.752;6.964;2022-11-24T07:46:04;6.90;99.90
39219;DHT22;24934;52.752;6.964;2022-11-24T07:48:33;6.90;99.90
39219;DHT22;24934;52.752;6.964;2022-11-24T07:51:04;7.00;99.90
39219;DHT22;24934;52.752;6.964;2022-11-24T07:53:30;7.00;99.90
39219;DHT22;24934;52.752;6.964;2022-11-24T07:55:58;7.00;99.90
39219;DHT22;24934;52.752;6.964;2022-11-24T07:58:26;7.00;99.90
39219;DHT22;24934;52.752;6.964;2022-11-24T08:00:52;7.00;99.90
39219;DHT22;24934;52.752;6.964;2022-11-24T08:03:17;7.00;99.90
39219;DHT22;24934;52.752;6.964;2022-11-24T08:05:43;7.00;99.90
39219;DHT22;24934;52.752;6.964;2022-11-24T08:08:17;6.90;99.90
39219;DHT22;24934;52.752;6.964;2022-11-24T08:10:42;6.90;99.90
39219;DHT22;24934;52.752;6.964;2022-11-24T08:13:08;6.90;99.90
39219;DHT22;24934;52.752;6.964;2022-11-24T08:15:34;6.80;99.90
39219;DHT22;24934;52.752;6.964;2022-11-24T08:18:00;6.80;99.90
39219;DHT22;24934;52.752;6.964;2022-11-24T08:20:26;6.80;99.90
39219;DHT22;24934;52.752;6.964;2022-11-24T08:22:58;6.80;99.90
39219;DHT22;24934;52.752;6.964;2022-11-24T08:25:27;6.80;99.90
39219;DHT22;24934;52.752;6.964;2022-11-24T08:28:02;6.80;99.90
39219;DHT22;24934;52.752;6.964;2022-11-24T08:30:29;6.80;99.90
39219;DHT22;24934;52.752;6.964;2022-11-24T08:32:57;6.80;99.90
39219;DHT22;24934;52.752;6.964;2022-11-24T08:35:22;6.80;99.90
39219;DHT22;24934;52.752;6.964;2022-11-24T08:37:48;6.80;99.90
39219;DHT22;24934;52.752;6.964;2022-11-24T08:40:14;6.80;99.90
39219;DHT22;24934;52.752;6.964;2022-11-24T08:42:40;6.80;99.90
39219;DHT22;24934;52.752;6.964;2022-11-24T08:45:06;6.80;99.90
39219;DHT22;24934;52.752;6.964;2022-11-24T08:47:34;6.80;99.90
39219;DHT22;24934;52.752;6.964;2022-11-24T08:50:00;6.90;99.90
39219;DHT22;24934;52.752;6.964;2022-11-24T08:52:28;6.90;99.90
39219;DHT22;24934;52.752;6.964;2022-11-24T08:54:54;6.90;99.90
39219;DHT22;24934;52.752;6.964;2022-11-24T08:57:19;6.90;99.90
39219;DHT22;24934;52.752;6.964;2022-11-24T08:59:45;7.00;99.90
39219;DHT22;24934;52.752;6.964;2022-11-24T09:02:12;7.00;99.90
39219;DHT22;24934;52.752;6.964;2022-11-24T09:04:38;7.00;99.90
39219;DHT22;24934;52.752;6.964;2022-11-24T09:07:03;7.00;99.90
39219;DHT22;24934;52.752;6.964;2022-11-24T09:09:32;7.00;99.90
39219;DHT22;24934;52.752;6.964;2022-11-24T09:11:57;7.00;99.90
39219;DHT22;24934;52.752;6.964;2022-11-24T09:14:30;7.00;99.90
39219;DHT22;24934;52.752;6.964;2022-11-24T09:16:56;7.00;99.90
39219;DHT22;24934;52.752;6.964;2022-11-24T09:19:21;7.10;99.90
39219;DHT22;24934;52.752;6.964;2022-11-24T09:21:48;7.20;99.90
39219;DHT22;24934;52.752;6.964;2022-11-24T09:24:14;7.20;99.90
39219;DHT22;24934;52.752;6.964;2022-11-24T09:26:40;7.30;99.90
39219;DHT22;24934;52.752;6.964;2022-11-24T09:29:15;7.30;99.90
39219;DHT22;24934;52.752;6.964;2022-11-24T09:31:44;7.40;99.90
39219;DHT22;24934;52.752;6.964;2022-11-24T09:34:14;7.50;99.90
39219;DHT22;24934;52.752;6.964;2022-11-24T09:36:40;7.50;99.90
39219;DHT22;24934;52.752;6.964;2022-11-24T09:39:07;7.60;99.90
39219;DHT22;24934;52.752;6.964;2022-11-24T09:41:47;7.60;99.90
39219;DHT22;24934;52.752;6.964;2022-11-24T09:49:59;7.90;99.90
39219;DHT22;24934;52.752;6.964;2022-11-24T10:01:35;8.20;99.90
39219;DHT22;24934;52.752;6.964;2022-11-24T10:04:08;8.20;99.90
39219;DHT22;24934;52.752;6.964;2022-11-24T10:15:22;8.40;99.90
39219;DHT22;24934;52.752;6.964;2022-11-24T10:29:35;8.70;99.90
39219;DHT22;24934;52.752;6.964;2022-11-24T10:32:04;8.80;99.90
39219;DHT22;24934;52.752;6.964;2022-11-24T10:34:38;8.90;99.90
39219;DHT22;24934;52.752;6.964;2022-11-24T10:43:11;9.10;99.90
39219;DHT22;24934;52.752;6.964;2022-11-24T10:45:37;9.10;99.90
39219;DHT22;24934;52.752;6.964;2022-11-24T10:48:22;9.10;99.90
39219;DHT22;24934;52.752;6.964;2022-11-24T10:53:33;9.20;99.90
39219;DHT22;24934;52.752;6.964;2022-11-24T10:56:02;9.30;99.90
39219;DHT22;24934;52.752;6.964;2022-11-24T10:58:36;9.30;99.90
39219;DHT22;24934;52.752;6.964;2022-11-24T11:01:18;9.40;99.90
39219;DHT22;24934;52.752;6.964;2022-11-24T11:03:52;9.40;99.90
39219;DHT22;24934;52.752;6.964;2022-11-24T11:06:30;9.50;99.90
39219;DHT22;24934;52.752;6.964;2022-11-24T11:11:37;9.50;99.90
39219;DHT22;24934;52.752;6.964;2022-11-24T11:14:12;9.60;99.90
39219;DHT22;24934;52.752;6.964;2022-11-24T11:16:40;9.70;99.90
39219;DHT22;24934;52.752;6.964;2022-11-24T11:19:32;9.60;99.90
39219;DHT22;24934;52.752;6.964;2022-11-24T11:22:14;9.60;99.90
39219;DHT22;24934;52.752;6.964;2022-11-24T11:24:45;9.50;99.90
39219;DHT22;24934;52.752;6.964;2022-11-24T11:27:23;9.40;99.90
39219;DHT22;24934;52.752;6.964;2022-11-24T11:29:50;9.40;99.90
39219;DHT22;24934;52.752;6.964;2022-11-24T11:32:22;9.50;99.90
39219;DHT22;24934;52.752;6.964;2022-11-24T11:34:51;9.50;99.90
39219;DHT22;24934;52.752;6.964;2022-11-24T11:37:19;9.50;99.90
39219;DHT22;24934;52.752;6.964;2022-11-24T11:40:07;9.60;99.90
39219;DHT22;24934;52.752;6.964;2022-11-24T11:42:37;9.80;99.90
39219;DHT22;24934;52.752;6.964;2022-11-24T11:47:52;10.10;99.90
39219;DHT22;24934;52.752;6.964;2022-11-24T11:59:20;10.50;99.90
39219;DHT22;24934;52.752;6.964;2022-11-24T12:02:24;10.70;99.90
39219;DHT22;24934;52.752;6.964;2022-11-24T12:05:04;10.80;99.90
39219;DHT22;24934;52.752;6.964;2022-11-24T12:07:53;10.80;99.90
39219;DHT22;24934;52.752;6.964;2022-11-24T12:10:45;10.90;99.90
39219;DHT22;24934;52.752;6.964;2022-11-24T12:13:58;11.00;99.90
39219;DHT22;24934;52.752;6.964;2022-11-24T12:19:02;11.30;99.90
39219;DHT22;24934;52.752;6.964;2022-11-24T12:24:38;11.50;99.90
39219;DHT22;24934;52.752;6.964;2022-11-24T12:27:16;11.60;99.90
39219;DHT22;24934;52.752;6.964;2022-11-24T12:30:07;11.50;99.90
39219;DHT22;24934;52.752;6.964;2022-11-24T12:38:20;11.70;99.90
39219;DHT22;24934;52.752;6.964;2022-11-24T12:43:35;11.80;99.90
39219;DHT22;24934;52.752;6.964;2022-11-24T12:52:21;11.90;99.90
39219;DHT22;24934;52.752;6.964;2022-11-24T12:54:51;11.90;99.90
39219;DHT22;24934;52.752;6.964;2022-11-24T12:57:29;11.90;99.90
39219;DHT22;24934;52.752;6.964;2022-11-24T13:00:13;11.90;99.90
39219;DHT22;24934;52.752;6.964;2022-11-24T13:05:30;11.90;99.90
39219;DHT22;24934;52.752;6.964;2022-11-24T13:08:02;11.90;99.90
39219;DHT22;24934;52.752;6.964;2022-11-24T13:10:38;11.70;99.90
39219;DHT22;24934;52.752;6.964;2022-11-24T13:13:06;11.60;99.90
39219;DHT22;24934;52.752;6.964;2022-11-24T13:18:46;11.40;99.90
39219;DHT22;24934;52.752;6.964;2022-11-24T13:31:53;11.10;99.90
39219;DHT22;24934;52.752;6.964;2022-11-24T13:39:56;10.90;99.90
39219;DHT22;24934;52.752;6.964;2022-11-24T13:42:23;10.90;99.90
39219;DHT22;24934;52.752;6.964;2022-11-24T13:44:56;10.70;99.90
39219;DHT22;24934;52.752;6.964;2022-11-24T13:47:43;10.70;99.90
39219;DHT22;24934;52.752;6.964;2022-11-24T13:50:23;10.70;99.90
39219;DHT22;24934;52.752;6.964;2022-11-24T13:56:41;10.60;99.90
39219;DHT22;24934;52.752;6.964;2022-11-24T13:58:56;10.50;99.90
39219;DHT22;24934;52.752;6.964;2022-11-24T14:01:30;10.40;99.90
39219;DHT22;24934;52.752;6.964;2022-11-24T14:06:59;10.30;99.90
39219;DHT22;24934;52.752;6.964;2022-11-24T14:14:24;10.10;99.90
39219;DHT22;24934;52.752;6.964;2022-11-24T14:19:41;10.00;99.90
39219;DHT22;24934;52.752;6.964;2022-11-24T14:24:59;9.90;99.90
39219;DHT22;24934;52.752;6.964;2022-11-24T14:27:31;9.80;99.90
39219;DHT22;24934;52.752;6.964;2022-11-24T14:30:04;9.70;99.90
39219;DHT22;24934;52.752;6.964;2022-11-24T14:32:55;9.60;99.90
39219;DHT22;24934;52.752;6.964;2022-11-24T14:35:28;9.60;99.90
39219;DHT22;24934;52.752;6.964;2022-11-24T14:37:58;9.50;99.90
39219;DHT22;24934;52.752;6.964;2022-11-24T14:40:47;9.50;99.90
39219;DHT22;24934;52.752;6.964;2022-11-24T14:43:31;9.40;99.90
39219;DHT22;24934;52.752;6.964;2022-11-24T14:46:10;9.40;99.90
39219;DHT22;24934;52.752;6.964;2022-11-24T14:48:49;9.30;99.90
39219;DHT22;24934;52.752;6.964;2022-11-24T14:51:23;9.20;99.90
39219;DHT22;24934;52.752;6.964;2022-11-24T14:53:54;9.10;99.90
39219;DHT22;24934;52.752;6.964;2022-11-24T14:56:27;9.00;99.90
39219;DHT22;24934;52.752;6.964;2022-11-24T14:58:57;9.00;99.90
39219;DHT22;24934;52.752;6.964;2022-11-24T15:04:17;8.80;99.90
39219;DHT22;24934;52.752;6.964;2022-11-24T15:07:32;8.70;99.90
39219;DHT22;24934;52.752;6.964;2022-11-24T15:09:40;8.60;99.90
39219;DHT22;24934;52.752;6.964;2022-11-24T15:12:35;8.50;99.90
39219;DHT22;24934;52.752;6.964;2022-11-24T15:17:56;8.30;99.90
39219;DHT22;24934;52.752;6.964;2022-11-24T15:20:37;8.30;99.90
39219;DHT22;24934;52.752;6.964;2022-11-24T15:23:29;8.20;99.90
39219;DHT22;24934;52.752;6.964;2022-11-24T15:28:30;8.10;99.90
39219;DHT22;24934;52.752;6.964;2022-11-24T15:31:00;8.00;99.90
39219;DHT22;24934;52.752;6.964;2022-11-24T15:33:27;8.00;99.90
39219;DHT22;24934;52.752;6.964;2022-11-24T15:35:53;7.90;99.90
39219;DHT22;24934;52.752;6.964;2022-11-24T15:38:19;7.80;99.90
39219;DHT22;24934;52.752;6.964;2022-11-24T15:40:47;7.80;99.90
39219;DHT22;24934;52.752;6.964;2022-11-24T15:45:52;7.60;99.90
39219;DHT22;24934;52.752;6.964;2022-11-24T15:48:18;7.60;99.90
39219;DHT22;24934;52.752;6.964;2022-11-24T15:50:44;7.50;99.90
39219;DHT22;24934;52.752;6.964;2022-11-24T15:53:19;7.50;99.90
39219;DHT22;24934;52.752;6.964;2022-11-24T15:55:47;7.50;99.90
39219;DHT22;24934;52.752;6.964;2022-11-24T15:58:15;7.40;99.90
39219;DHT22;24934;52.752;6.964;2022-11-24T16:00:44;7.30;99.90
39219;DHT22;24934;52.752;6.964;2022-11-24T16:03:10;7.20;99.90
39219;DHT22;24934;52.752;6.964;2022-11-24T16:05:39;7.10;99.90
39219;DHT22;24934;52.752;6.964;2022-11-24T16:08:09;7.10;99.90
39219;DHT22;24934;52.752;6.964;2022-11-24T16:10:36;7.00;99.90
39219;DHT22;24934;52.752;6.964;2022-11-24T16:13:04;7.00;99.90
39219;DHT22;24934;52.752;6.964;2022-11-24T16:15:30;6.90;99.90
39219;DHT22;24934;52.752;6.964;2022-11-24T16:17:55;6.80;99.90
39219;DHT22;24934;52.752;6.964;2022-11-24T16:20:22;6.80;99.90
39219;DHT22;24934;52.752;6.964;2022-11-24T16:22:47;6.70;99.90
39219;DHT22;24934;52.752;6.964;2022-11-24T16:25:13;6.70;99.90
39219;DHT22;24934;52.752;6.964;2022-11-24T16:27:39;6.60;99.90
39219;DHT22;24934;52.752;6.964;2022-11-24T16:30:06;6.60;99.90
39219;DHT22;24934;52.752;6.964;2022-11-24T16:32:32;6.60;99.90
39219;DHT22;24934;52.752;6.964;2022-11-24T16:34:58;6.60;99.90
39219;DHT22;24934;52.752;6.964;2022-11-24T16:37:24;6.60;99.90
39219;DHT22;24934;52.752;6.964;2022-11-24T16:39:49;6.50;99.90
39219;DHT22;24934;52.752;6.964;2022-11-24T16:42:15;6.60;99.90
39219;DHT22;24934;52.752;6.964;2022-11-24T16:44:41;6.60;99.90
39219;DHT22;24934;52.752;6.964;2022-11-24T16:47:06;6.50;99.90
39219;DHT22;24934;52.752;6.964;2022-11-24T16:49:32;6.50;99.90
39219;DHT22;24934;52.752;6.964;2022-11-24T16:51:57;6.50;99.90
39219;DHT22;24934;52.752;6.964;2022-11-24T16:54:23;6.50;99.90
39219;DHT22;24934;52.752;6.964;2022-11-24T16:56:50;6.50;99.90
39219;DHT22;24934;52.752;6.964;2022-11-24T16:59:16;6.40;99.90
39219;DHT22;24934;52.752;6.964;2022-11-24T17:01:41;6.40;99.90
39219;DHT22;24934;52.752;6.964;2022-11-24T17:04:11;6.30;99.90
39219;DHT22;24934;52.752;6.964;2022-11-24T17:06:37;6.30;99.90
39219;DHT22;24934;52.752;6.964;2022-11-24T17:09:02;6.30;99.90
39219;DHT22;24934;52.752;6.964;2022-11-24T17:11:28;6.30;99.90
39219;DHT22;24934;52.752;6.964;2022-11-24T17:13:56;6.30;99.90
39219;DHT22;24934;52.752;6.964;2022-11-24T17:16:23;6.30;99.90
39219;DHT22;24934;52.752;6.964;2022-11-24T17:18:49;6.40;99.90
39219;DHT22;24934;52.752;6.964;2022-11-24T17:21:25;6.50;99.90
39219;DHT22;24934;52.752;6.964;2022-11-24T17:23:56;6.50;99.90
39219;DHT22;24934;52.752;6.964;2022-11-24T17:26:22;6.40;99.90
39219;DHT22;24934;52.752;6.964;2022-11-24T17:28:55;6.40;99.90
39219;DHT22;24934;52.752;6.964;2022-11-24T17:31:29;6.50;99.90
39219;DHT22;24934;52.752;6.964;2022-11-24T17:34:05;6.50;99.90
39219;DHT22;24934;52.752;6.964;2022-11-24T17:36:32;6.50;99.90
39219;DHT22;24934;52.752;6.964;2022-11-24T17:38:59;6.50;99.90
39219;DHT22;24934;52.752;6.964;2022-11-24T17:41:25;6.40;99.90
39219;DHT22;24934;52.752;6.964;2022-11-24T17:43:53;6.50;99.90
39219;DHT22;24934;52.752;6.964;2022-11-24T17:46:23;6.50;99.90
39219;DHT22;24934;52.752;6.964;2022-11-24T17:48:52;6.30;99.90
39219;DHT22;24934;52.752;6.964;2022-11-24T17:51:20;6.30;99.90
39219;DHT22;24934;52.752;6.964;2022-11-24T17:53:47;6.20;99.90
39219;DHT22;24934;52.752;6.964;2022-11-24T17:56:16;6.20;99.90
39219;DHT22;24934;52.752;6.964;2022-11-24T17:58:50;6.30;99.90
39219;DHT22;24934;52.752;6.964;2022-11-24T18:01:17;6.20;99.90
39219;DHT22;24934;52.752;6.964;2022-11-24T18:03:45;6.20;99.90
39219;DHT22;24934;52.752;6.964;2022-11-24T18:06:12;6.10;99.90
39219;DHT22;24934;52.752;6.964;2022-11-24T18:08:40;6.10;99.90
39219;DHT22;24934;52.752;6.964;2022-11-24T18:13:32;6.00;99.90
39219;DHT22;24934;52.752;6.964;2022-11-24T18:16:07;6.10;99.90
39219;DHT22;24934;52.752;6.964;2022-11-24T18:18:35;6.00;99.90